Time;durP1;ratioP1;P1;durP2;ratioP2;P2;SDS_P1;SDS_P2;PMS_P1;PMS_P2;Temp;Humidity;BMP_temperature;BMP_pressure;BME280_temperature;BME280_humidity;BME280_pressure;Samples;Min_cycle;Max_cycle;Signal;HPM_P1;HPM_P2
2021/05/26 00:06:11;;;;;;;7.30;1.50;;;8.50;99.90;;;;;;20743276;28;20519;-81
2021/05/26 00:16:13;;;;;;;2.20;1.00;;;8.70;99.90;;;;;;20728584;28;20034;-80
2021/05/26 00:26:14;;;;;;;2.40;0.90;;;8.40;99.90;;;;;;20705027;28;20065;-80
2021/05/26 00:36:15;;;;;;;1.70;0.90;;;8.30;99.90;;;;;;20728743;28;20412;-81
2021/05/26 00:46:16;;;;;;;2.67;1.20;;;8.50;99.90;;;;;;20708627;28;20034;-82
2021/05/26 00:56:17;;;;;;;2.27;0.80;;;8.40;99.90;;;;;;20701824;28;20064;-79
2021/05/26 01:06:18;;;;;;;5.00;0.80;;;8.30;99.90;;;;;;20701473;28;20534;-80
2021/05/26 01:16:22;;;;;;;1.60;0.90;;;8.50;99.90;;;;;;20706430;28;20085;-79
2021/05/26 01:26:23;;;;;;;4.63;1.00;;;8.10;99.90;;;;;;20678888;28;20034;-80
2021/05/26 01:36:25;;;;;;;1.70;0.83;;;8.10;99.90;;;;;;20698496;28;20485;-81
2021/05/26 01:46:26;;;;;;;3.40;1.23;;;8.30;99.90;;;;;;20683974;28;20097;-81
2021/05/26 01:56:29;;;;;;;4.17;1.03;;;8.20;99.90;;;;;;20705150;28;20054;-79
2021/05/26 02:06:45;;;;;;;;;;;8.30;99.90;;;;;;20676002;28;20061;-80
2021/05/26 02:16:47;;;;;;;3.90;1.17;;;8.40;99.90;;;;;;20672407;28;19910;-81
2021/05/26 02:26:48;;;;;;;2.67;0.93;;;8.60;99.90;;;;;;20689287;28;20142;-78
2021/05/26 02:36:49;;;;;;;6.47;1.27;;;8.50;99.90;;;;;;20692333;28;20521;-80
2021/05/26 02:46:54;;;;;;;1.92;0.93;;;8.50;99.90;;;;;;20715314;28;20030;-80
2021/05/26 02:56:55;;;;;;;5.07;1.27;;;8.50;99.90;;;;;;20690438;28;20435;-79
2021/05/26 03:07:31;;;;;;;1.48;0.80;;;8.50;99.90;;;;;;20704482;28;20053;-81
2021/05/26 03:17:33;;;;;;;6.27;1.30;;;8.30;99.90;;;;;;20689910;28;20038;-81
2021/05/26 03:27:37;;;;;;;2.63;1.05;;;8.20;99.90;;;;;;20691763;28;20033;-81
2021/05/26 03:37:39;;;;;;;2.15;0.88;;;8.20;99.90;;;;;;20707716;28;20102;-81
2021/05/26 03:47:40;;;;;;;2.40;1.15;;;8.20;99.90;;;;;;20712607;28;20042;-79
2021/05/26 03:57:41;;;;;;;3.30;1.20;;;8.40;99.90;;;;;;20712195;28;20057;-81
2021/05/26 04:07:42;;;;;;;2.40;0.97;;;8.30;99.90;;;;;;20706236;28;20109;-79
2021/05/26 04:17:44;;;;;;;2.53;1.00;;;8.10;99.90;;;;;;20708930;28;20026;-79
2021/05/26 04:27:55;;;;;;;4.47;1.75;;;8.20;99.90;;;;;;20705342;28;20030;-80
2021/05/26 04:37:56;;;;;;;1.97;1.10;;;8.50;99.90;;;;;;20730377;28;20029;-79
2021/05/26 04:47:57;;;;;;;2.23;1.23;;;8.40;99.90;;;;;;20708361;28;20042;-80
2021/05/26 04:58:02;;;;;;;2.50;1.40;;;8.30;99.90;;;;;;20703903;28;20026;-79
2021/05/26 05:08:05;;;;;;;1.88;1.10;;;8.50;99.90;;;;;;20842207;22;20045;-78
2021/05/26 05:18:06;;;;;;;4.68;1.63;;;8.80;99.90;;;;;;20851960;28;20105;-79
2021/05/26 05:28:07;;;;;;;3.93;1.40;;;9.30;99.90;;;;;;20834149;28;20496;-78
2021/05/26 05:38:07;;;;;;;5.83;1.63;;;9.50;99.90;;;;;;20835111;28;20032;-78
2021/05/26 05:48:09;;;;;;;2.43;1.07;;;10.00;99.90;;;;;;20835613;28;20037;-78
2021/05/26 05:58:11;;;;;;;4.57;1.40;;;10.40;99.90;;;;;;20826624;28;20036;-76
2021/05/26 06:08:12;;;;;;;6.07;2.00;;;10.60;99.90;;;;;;20826963;28;20037;-76
2021/05/26 06:18:13;;;;;;;5.73;1.57;;;10.80;99.90;;;;;;20839461;28;20037;-76
2021/05/26 06:28:14;;;;;;;1.17;0.80;;;11.40;99.90;;;;;;20838436;28;20033;-77
2021/05/26 06:38:15;;;;;;;3.23;1.50;;;11.70;99.90;;;;;;20778837;28;20488;-76
2021/05/26 06:48:15;;;;;;;6.83;1.53;;;11.90;99.90;;;;;;20760540;28;20033;-76
2021/05/26 06:58:16;;;;;;;4.50;1.33;;;12.60;99.90;;;;;;20754499;28;20514;-76
2021/05/26 07:08:17;;;;;;;5.73;2.07;;;13.00;99.90;;;;;;20754161;28;20046;-77
2021/05/26 07:18:18;;;;;;;9.93;2.13;;;14.10;99.90;;;;;;20751090;28;20070;-77
2021/05/26 07:28:19;;;;;;;12.37;1.70;;;13.90;99.90;;;;;;20751533;28;20037;-77
2021/05/26 07:38:20;;;;;;;5.40;0.90;;;14.20;99.90;;;;;;20750971;28;20025;-76
2021/05/26 07:48:21;;;;;;;13.60;1.55;;;14.30;99.90;;;;;;20757186;28;20029;-76
2021/05/26 07:58:22;;;;;;;7.55;1.42;;;14.40;99.90;;;;;;20810305;28;20033;-76
2021/05/26 08:08:23;;;;;;;10.80;1.87;;;14.40;99.90;;;;;;20809877;28;20032;-76
2021/05/26 08:18:24;;;;;;;4.63;1.73;;;13.80;99.90;;;;;;20809990;28;20041;-77
2021/05/26 08:28:26;;;;;;;8.50;1.80;;;13.90;99.90;;;;;;20809246;28;20124;-76
2021/05/26 08:38:26;;;;;;;;;;;14.30;99.90;;;;;;20804873;28;20554;-76
2021/05/26 08:48:30;;;;;;;12.67;2.00;;;14.40;99.90;;;;;;20761257;28;19918;-76
2021/05/26 08:58:37;;;;;;;12.18;2.20;;;14.10;99.90;;;;;;20795517;28;20045;-76
2021/05/26 09:08:58;;;;;;;14.80;3.35;;;14.20;99.90;;;;;;20803636;28;20045;-76
2021/05/26 09:19:09;;;;;;;5.55;2.08;;;14.60;99.90;;;;;;20769517;28;20038;-76
2021/05/26 09:29:10;;;;;;;12.65;2.05;;;14.30;99.90;;;;;;20762291;28;20472;-76
2021/05/26 09:39:11;;;;;;;16.10;2.10;;;13.90;99.90;;;;;;20739133;28;20069;-76
2021/05/26 09:49:16;;;;;;;11.90;2.33;;;14.10;99.90;;;;;;20788381;28;20041;-76
2021/05/26 09:59:18;;;;;;;5.50;1.98;;;13.70;99.90;;;;;;20797281;28;20150;-76
2021/05/26 10:09:23;;;;;;;;;;;13.60;99.90;;;;;;20770659;28;20045;-76
2021/05/26 10:19:43;;;;;;;12.03;2.80;;;13.60;99.90;;;;;;20772951;28;20016;-76
2021/05/26 10:29:44;;;;;;;7.78;1.80;;;13.30;99.90;;;;;;20771750;28;20032;-76
2021/05/26 10:39:45;;;;;;;11.30;2.13;;;13.00;99.90;;;;;;20778173;28;20042;-76
2021/05/26 10:49:50;;;;;;;13.60;2.05;;;13.10;99.90;;;;;;20785169;28;20034;-76
2021/05/26 11:00:24;;;;;;;15.18;2.08;;;13.10;99.90;;;;;;20750502;28;20033;-76
2021/05/26 11:10:25;;;;;;;7.85;2.05;;;13.00;99.90;;;;;;20735519;28;20042;-76
2021/05/26 11:20:28;;;;;;;9.37;1.67;;;13.00;99.90;;;;;;20742396;28;20029;-77
2021/05/26 11:30:29;;;;;;;6.93;1.25;;;13.50;99.90;;;;;;20747399;28;20080;-76
2021/05/26 11:40:30;;;;;;;6.93;1.38;;;13.50;99.90;;;;;;20790800;28;20029;-76
2021/05/26 11:50:32;;;;;;;3.95;1.20;;;14.10;99.90;;;;;;20783511;28;20025;-77
2021/05/26 12:00:36;;;;;;;2.20;0.93;;;14.70;99.90;;;;;;20789088;28;20041;-76
2021/05/26 12:10:37;;;;;;;8.35;1.20;;;15.40;99.90;;;;;;20786695;28;20054;-76
2021/05/26 12:20:45;;;;;;;4.57;0.98;;;15.00;99.90;;;;;;20787507;28;20034;-76
2021/05/26 12:30:47;;;;;;;4.25;1.42;;;15.40;99.90;;;;;;20800850;28;20496;-75
2021/05/26 12:40:48;;;;;;;1.52;0.60;;;15.50;99.90;;;;;;20835238;28;20032;-75
2021/05/26 12:50:49;;;;;;;3.50;0.70;;;15.30;99.90;;;;;;20828325;28;20037;-76
2021/05/26 13:00:50;;;;;;;3.13;0.60;;;14.80;99.90;;;;;;20828759;28;20049;-75
2021/05/26 13:10:51;;;;;;;4.15;1.00;;;14.60;99.90;;;;;;20827100;28;20060;-75
2021/05/26 13:20:54;;;;;;;2.60;0.73;;;14.50;99.90;;;;;;20826344;28;20021;-75
2021/05/26 13:30:55;;;;;;;1.65;0.80;;;14.40;99.90;;;;;;20807965;28;20401;-76
2021/05/26 13:40:57;;;;;;;1.55;0.80;;;14.40;99.90;;;;;;20808808;28;20056;-76
2021/05/26 13:50:58;;;;;;;2.03;0.95;;;13.90;99.90;;;;;;20840458;28;20642;-76
2021/05/26 14:00:59;;;;;;;6.60;0.67;;;13.70;99.90;;;;;;20784405;28;20030;-76
2021/05/26 14:11:00;;;;;;;1.20;0.50;;;13.30;99.90;;;;;;20786239;28;20392;-76
2021/05/26 14:21:01;;;;;;;0.90;0.40;;;13.20;99.90;;;;;;20780601;28;20030;-77
2021/05/26 14:31:05;;;;;;;2.70;0.70;;;12.90;99.90;;;;;;20805825;23;20116;-77
2021/05/26 14:41:06;;;;;;;5.78;1.30;;;12.60;99.90;;;;;;20810340;28;20025;-76
2021/05/26 14:51:07;;;;;;;7.10;1.13;;;12.40;99.90;;;;;;20797757;28;20026;-78
2021/05/26 15:01:09;;;;;;;14.97;7.20;;;12.30;99.90;;;;;;20794336;28;20029;-77
2021/05/26 15:11:10;;;;;;;6.30;1.80;;;12.40;99.90;;;;;;20792933;28;20034;-75
2021/05/26 15:21:12;;;;;;;3.60;1.77;;;12.10;99.90;;;;;;20787891;28;20687;-76
2021/05/26 15:31:12;;;;;;;4.53;2.37;;;12.00;99.90;;;;;;20796264;28;20492;-76
2021/05/26 15:41:13;;;;;;;5.60;2.40;;;12.20;99.90;;;;;;20795814;28;20056;-76
2021/05/26 15:51:14;;;;;;;6.20;2.27;;;12.20;99.90;;;;;;20831979;28;20025;-76
2021/05/26 16:01:15;;;;;;;5.53;2.42;;;12.30;99.90;;;;;;20829731;28;20033;-77
2021/05/26 16:11:16;;;;;;;7.30;2.70;;;12.30;99.90;;;;;;20830349;28;20391;-78
2021/05/26 16:21:17;;;;;;;7.23;1.93;;;12.50;99.90;;;;;;20823554;28;20032;-77
2021/05/26 16:31:22;;;;;;;7.37;2.47;;;12.50;99.90;;;;;;20765889;28;20121;-77
2021/05/26 16:41:23;;;;;;;10.52;3.67;;;12.50;99.90;;;;;;20754851;28;20033;-76
2021/05/26 16:51:24;;;;;;;9.07;3.03;;;12.60;99.90;;;;;;20745290;28;20500;-77
2021/05/26 17:01:25;;;;;;;14.00;3.30;;;12.70;99.90;;;;;;20784487;28;20392;-76
2021/05/26 17:11:27;;;;;;;6.33;2.33;;;12.80;99.90;;;;;;20784389;28;20045;-77
2021/05/26 17:21:27;;;;;;;4.60;2.00;;;12.80;99.90;;;;;;20778179;28;20037;-77
2021/05/26 17:31:28;;;;;;;5.57;2.15;;;12.90;99.90;;;;;;20782911;28;20044;-76
2021/05/26 17:41:30;;;;;;;5.07;2.27;;;13.00;99.90;;;;;;20785720;28;20488;-76
2021/05/26 17:51:31;;;;;;;5.75;2.22;;;12.90;99.90;;;;;;20782085;28;20032;-77
2021/05/26 18:01:32;;;;;;;3.10;1.80;;;12.90;99.90;;;;;;20782968;28;20038;-76
2021/05/26 18:11:34;;;;;;;5.28;1.85;;;13.00;99.90;;;;;;20778545;28;20460;-76
2021/05/26 18:21:35;;;;;;;;;;;13.00;99.90;;;;;;20782102;28;20025;-78
2021/05/26 18:31:36;;;;;;;5.32;2.35;;;12.90;99.90;;;;;;20758064;28;20446;-77
2021/05/26 18:41:37;;;;;;;6.93;2.20;;;12.80;99.90;;;;;;20760191;28;20030;-75
2021/05/26 18:51:39;;;;;;;8.30;1.97;;;12.80;99.90;;;;;;20766077;28;20034;-76
2021/05/26 19:01:42;;;;;;;4.50;1.80;;;12.80;99.90;;;;;;20754085;28;20400;-77
2021/05/26 19:11:43;;;;;;;6.28;1.60;;;12.70;99.90;;;;;;20763920;28;20496;-77
2021/05/26 19:21:45;;;;;;;10.07;2.50;;;12.60;99.90;;;;;;20773452;28;20147;-77
2021/05/26 19:31:46;;;;;;;9.05;4.05;;;12.60;99.90;;;;;;20794291;28;20052;-79
2021/05/26 19:41:47;;;;;;;8.88;4.32;;;12.50;99.90;;;;;;20774189;28;20041;-80
2021/05/26 19:51:47;;;;;;;5.37;2.80;;;12.30;99.90;;;;;;20832051;28;20025;-80
2021/05/26 20:01:49;;;;;;;9.63;3.47;;;12.30;99.90;;;;;;20826312;28;20038;-79
2021/05/26 20:11:51;;;;;;;8.52;3.70;;;12.30;99.90;;;;;;20873211;28;20029;-79
2021/05/26 20:21:52;;;;;;;7.85;3.22;;;12.20;99.90;;;;;;20897357;28;20040;-79
2021/05/26 20:31:53;;;;;;;10.10;3.35;;;12.20;99.90;;;;;;20879640;23;20057;-77
2021/05/26 20:41:54;;;;;;;10.00;2.93;;;12.10;99.90;;;;;;20832922;28;20026;-78
2021/05/26 20:51:55;;;;;;;13.20;3.40;;;12.10;99.90;;;;;;20813013;28;20032;-77
2021/05/26 21:01:56;;;;;;;6.57;2.90;;;12.10;99.90;;;;;;20837224;28;20207;-77
2021/05/26 21:11:57;;;;;;;10.13;3.40;;;12.00;99.90;;;;;;20857541;28;20041;-77
2021/05/26 21:21:57;;;;;;;7.80;2.97;;;12.00;99.90;;;;;;20863101;28;20032;-77
2021/05/26 21:31:58;;;;;;;8.47;3.00;;;11.90;99.90;;;;;;20891693;28;20052;-77
2021/05/26 21:41:59;;;;;;;7.60;2.87;;;11.90;99.90;;;;;;20892150;28;20044;-78
2021/05/26 21:52:00;;;;;;;7.60;2.80;;;11.70;99.90;;;;;;20847446;28;20029;-78
2021/05/26 22:02:01;;;;;;;6.50;2.73;;;11.60;99.90;;;;;;20818260;28;20060;-77
2021/05/26 22:12:03;;;;;;;6.93;2.23;;;11.40;99.90;;;;;;20847406;28;20029;-78
2021/05/26 22:22:04;;;;;;;7.80;2.47;;;11.40;99.90;;;;;;20824689;28;20030;-78
2021/05/26 22:32:05;;;;;;;5.17;2.40;;;11.20;99.90;;;;;;20830684;28;20555;-78
2021/05/26 22:42:06;;;;;;;5.23;2.73;;;11.20;99.90;;;;;;20832507;28;20527;-77
2021/05/26 22:52:07;;;;;;;7.90;2.77;;;11.10;99.90;;;;;;20836311;28;20037;-78
2021/05/26 23:02:08;;;;;;;3.17;1.83;;;10.90;99.90;;;;;;20843112;28;20468;-78
2021/05/26 23:12:09;;;;;;;2.23;1.33;;;10.80;99.90;;;;;;20842222;28;20033;-77
2021/05/26 23:22:11;;;;;;;2.33;1.20;;;10.60;99.90;;;;;;20836874;28;20032;-78
2021/05/26 23:32:12;;;;;;;1.00;0.77;;;10.40;99.90;;;;;;20834915;28;20033;-78
2021/05/26 23:42:13;;;;;;;1.17;0.50;;;10.00;99.90;;;;;;20836869;28;20488;-78
2021/05/26 23:52:13;;;;;;;0.50;0.47;;;9.90;99.90;;;;;;20837219;28;20104;-77
